sensor_id;sensor_type;location;lat;lon;timestamp;P1;durP1;ratioP1;P2;durP2;ratioP2
12135;SDS011;6131;56.420;15.548;2022-07-10T00:01:54;4.97;;;1.17;;
12135;SDS011;6131;56.420;15.548;2022-07-10T00:04:20;4.67;;;1.20;;
12135;SDS011;6131;56.420;15.548;2022-07-10T00:06:46;3.93;;;1.27;;
12135;SDS011;6131;56.420;15.548;2022-07-10T00:09:14;3.17;;;1.00;;
12135;SDS011;6131;56.420;15.548;2022-07-10T00:11:41;5.47;;;1.30;;
12135;SDS011;6131;56.420;15.548;2022-07-10T00:14:07;3.93;;;0.90;;
12135;SDS011;6131;56.420;15.548;2022-07-10T00:16:33;3.67;;;1.00;;
12135;SDS011;6131;56.420;15.548;2022-07-10T00:19:00;4.43;;;1.10;;
12135;SDS011;6131;56.420;15.548;2022-07-10T00:21:26;4.30;;;1.23;;
12135;SDS011;6131;56.420;15.548;2022-07-10T00:23:52;4.50;;;1.30;;
12135;SDS011;6131;56.420;15.548;2022-07-10T00:26:18;5.30;;;1.10;;
12135;SDS011;6131;56.420;15.548;2022-07-10T00:28:44;5.07;;;1.00;;
12135;SDS011;6131;56.420;15.548;2022-07-10T00:31:10;4.07;;;1.13;;
12135;SDS011;6131;56.420;15.548;2022-07-10T00:33:36;4.73;;;1.33;;
12135;SDS011;6131;56.420;15.548;2022-07-10T00:36:05;4.60;;;1.10;;
12135;SDS011;6131;56.420;15.548;2022-07-10T00:38:32;4.67;;;1.00;;
12135;SDS011;6131;56.420;15.548;2022-07-10T00:40:58;4.47;;;1.10;;
12135;SDS011;6131;56.420;15.548;2022-07-10T00:43:24;4.03;;;1.20;;
12135;SDS011;6131;56.420;15.548;2022-07-10T00:45:50;2.50;;;0.93;;
12135;SDS011;6131;56.420;15.548;2022-07-10T00:48:16;3.43;;;1.10;;
12135;SDS011;6131;56.420;15.548;2022-07-10T00:50:42;5.50;;;1.10;;
12135;SDS011;6131;56.420;15.548;2022-07-10T00:53:10;3.47;;;1.20;;
12135;SDS011;6131;56.420;15.548;2022-07-10T00:55:36;4.10;;;1.20;;
12135;SDS011;6131;56.420;15.548;2022-07-10T00:58:05;4.50;;;1.10;;
12135;SDS011;6131;56.420;15.548;2022-07-10T01:00:32;4.57;;;1.03;;
12135;SDS011;6131;56.420;15.548;2022-07-10T01:02:58;4.13;;;1.20;;
12135;SDS011;6131;56.420;15.548;2022-07-10T01:05:24;3.53;;;1.20;;
12135;SDS011;6131;56.420;15.548;2022-07-10T01:07:50;4.90;;;1.10;;
12135;SDS011;6131;56.420;15.548;2022-07-10T01:10:16;4.20;;;1.30;;
12135;SDS011;6131;56.420;15.548;2022-07-10T01:12:42;6.00;;;1.40;;
12135;SDS011;6131;56.420;15.548;2022-07-10T01:15:08;5.03;;;1.10;;
12135;SDS011;6131;56.420;15.548;2022-07-10T01:17:35;6.03;;;1.30;;
12135;SDS011;6131;56.420;15.548;2022-07-10T01:20:05;4.90;;;1.50;;
12135;SDS011;6131;56.420;15.548;2022-07-10T01:22:32;3.73;;;1.10;;
12135;SDS011;6131;56.420;15.548;2022-07-10T01:24:58;4.03;;;1.27;;
12135;SDS011;6131;56.420;15.548;2022-07-10T01:27:24;4.20;;;1.10;;
12135;SDS011;6131;56.420;15.548;2022-07-10T01:29:50;3.33;;;1.20;;
12135;SDS011;6131;56.420;15.548;2022-07-10T01:32:16;3.80;;;1.20;;
12135;SDS011;6131;56.420;15.548;2022-07-10T01:34:42;4.77;;;1.50;;
12135;SDS011;6131;56.420;15.548;2022-07-10T01:37:08;5.17;;;1.37;;
12135;SDS011;6131;56.420;15.548;2022-07-10T01:39:34;6.87;;;1.30;;
12135;SDS011;6131;56.420;15.548;2022-07-10T01:42:00;8.73;;;1.80;;
12135;SDS011;6131;56.420;15.548;2022-07-10T01:44:26;9.13;;;1.47;;
12135;SDS011;6131;56.420;15.548;2022-07-10T01:46:52;4.43;;;1.57;;
12135;SDS011;6131;56.420;15.548;2022-07-10T01:49:18;6.90;;;1.27;;
12135;SDS011;6131;56.420;15.548;2022-07-10T01:51:44;5.60;;;1.50;;
12135;SDS011;6131;56.420;15.548;2022-07-10T01:54:10;5.43;;;1.60;;
12135;SDS011;6131;56.420;15.548;2022-07-10T01:56:36;3.87;;;1.30;;
12135;SDS011;6131;56.420;15.548;2022-07-10T01:59:03;3.20;;;1.37;;
12135;SDS011;6131;56.420;15.548;2022-07-10T02:01:29;3.40;;;1.20;;
12135;SDS011;6131;56.420;15.548;2022-07-10T02:03:55;4.30;;;1.60;;
12135;SDS011;6131;56.420;15.548;2022-07-10T02:06:40;3.10;;;1.10;;
12135;SDS011;6131;56.420;15.548;2022-07-10T02:09:06;4.40;;;1.63;;
12135;SDS011;6131;56.420;15.548;2022-07-10T02:11:32;4.80;;;1.60;;
12135;SDS011;6131;56.420;15.548;2022-07-10T02:13:58;4.80;;;1.57;;
12135;SDS011;6131;56.420;15.548;2022-07-10T02:16:24;7.33;;;1.60;;
12135;SDS011;6131;56.420;15.548;2022-07-10T02:18:50;4.17;;;1.30;;
12135;SDS011;6131;56.420;15.548;2022-07-10T02:21:16;6.47;;;1.40;;
12135;SDS011;6131;56.420;15.548;2022-07-10T02:23:42;5.30;;;1.40;;
12135;SDS011;6131;56.420;15.548;2022-07-10T02:26:08;7.37;;;1.60;;
12135;SDS011;6131;56.420;15.548;2022-07-10T02:28:34;6.90;;;1.93;;
12135;SDS011;6131;56.420;15.548;2022-07-10T02:31:00;6.53;;;1.70;;
12135;SDS011;6131;56.420;15.548;2022-07-10T02:33:26;6.40;;;1.53;;
12135;SDS011;6131;56.420;15.548;2022-07-10T02:35:52;4.67;;;1.40;;
12135;SDS011;6131;56.420;15.548;2022-07-10T02:38:18;4.67;;;1.30;;
12135;SDS011;6131;56.420;15.548;2022-07-10T02:40:44;8.33;;;1.47;;
12135;SDS011;6131;56.420;15.548;2022-07-10T02:43:10;9.90;;;1.70;;
12135;SDS011;6131;56.420;15.548;2022-07-10T02:45:36;5.70;;;1.60;;
12135;SDS011;6131;56.420;15.548;2022-07-10T02:48:02;7.23;;;1.60;;
12135;SDS011;6131;56.420;15.548;2022-07-10T02:50:28;3.93;;;1.40;;
12135;SDS011;6131;56.420;15.548;2022-07-10T02:52:54;7.73;;;1.60;;
12135;SDS011;6131;56.420;15.548;2022-07-10T02:55:20;5.03;;;1.60;;
12135;SDS011;6131;56.420;15.548;2022-07-10T02:57:46;7.60;;;1.47;;
12135;SDS011;6131;56.420;15.548;2022-07-10T03:00:13;7.00;;;1.83;;
12135;SDS011;6131;56.420;15.548;2022-07-10T03:02:39;7.83;;;1.67;;
12135;SDS011;6131;56.420;15.548;2022-07-10T03:05:05;10.50;;;1.93;;
12135;SDS011;6131;56.420;15.548;2022-07-10T03:07:31;6.57;;;1.60;;
12135;SDS011;6131;56.420;15.548;2022-07-10T03:09:57;6.00;;;1.77;;
12135;SDS011;6131;56.420;15.548;2022-07-10T03:12:23;6.27;;;1.63;;
12135;SDS011;6131;56.420;15.548;2022-07-10T03:14:50;8.20;;;1.90;;
12135;SDS011;6131;56.420;15.548;2022-07-10T03:17:16;7.57;;;2.00;;
12135;SDS011;6131;56.420;15.548;2022-07-10T03:19:42;5.60;;;1.67;;
12135;SDS011;6131;56.420;15.548;2022-07-10T03:22:08;4.60;;;1.57;;
12135;SDS011;6131;56.420;15.548;2022-07-10T03:24:34;9.13;;;1.90;;
12135;SDS011;6131;56.420;15.548;2022-07-10T03:27:00;8.30;;;2.17;;
12135;SDS011;6131;56.420;15.548;2022-07-10T03:29:26;6.40;;;1.57;;
12135;SDS011;6131;56.420;15.548;2022-07-10T03:31:52;6.03;;;1.77;;
12135;SDS011;6131;56.420;15.548;2022-07-10T03:34:18;6.03;;;1.70;;
12135;SDS011;6131;56.420;15.548;2022-07-10T03:36:44;6.57;;;1.83;;
12135;SDS011;6131;56.420;15.548;2022-07-10T03:39:10;7.80;;;2.23;;
12135;SDS011;6131;56.420;15.548;2022-07-10T03:41:36;6.10;;;1.90;;
12135;SDS011;6131;56.420;15.548;2022-07-10T03:44:02;9.10;;;2.10;;
12135;SDS011;6131;56.420;15.548;2022-07-10T03:46:28;8.23;;;2.00;;
12135;SDS011;6131;56.420;15.548;2022-07-10T03:48:54;6.17;;;1.70;;
12135;SDS011;6131;56.420;15.548;2022-07-10T03:51:20;6.23;;;2.03;;
12135;SDS011;6131;56.420;15.548;2022-07-10T03:53:46;9.23;;;2.03;;
12135;SDS011;6131;56.420;15.548;2022-07-10T03:56:13;8.37;;;2.07;;
12135;SDS011;6131;56.420;15.548;2022-07-10T03:58:59;7.43;;;1.90;;
12135;SDS011;6131;56.420;15.548;2022-07-10T04:01:25;6.90;;;1.77;;
12135;SDS011;6131;56.420;15.548;2022-07-10T04:03:51;9.00;;;2.00;;
12135;SDS011;6131;56.420;15.548;2022-07-10T04:06:17;6.37;;;1.87;;
12135;SDS011;6131;56.420;15.548;2022-07-10T04:08:43;7.23;;;1.80;;
12135;SDS011;6131;56.420;15.548;2022-07-10T04:11:09;7.37;;;1.70;;
12135;SDS011;6131;56.420;15.548;2022-07-10T04:13:35;7.33;;;2.17;;
12135;SDS011;6131;56.420;15.548;2022-07-10T04:16:02;5.43;;;1.70;;
12135;SDS011;6131;56.420;15.548;2022-07-10T04:18:28;7.60;;;1.73;;
12135;SDS011;6131;56.420;15.548;2022-07-10T04:20:54;6.87;;;1.90;;
12135;SDS011;6131;56.420;15.548;2022-07-10T04:23:20;7.77;;;1.87;;
12135;SDS011;6131;56.420;15.548;2022-07-10T04:25:46;8.47;;;1.97;;
12135;SDS011;6131;56.420;15.548;2022-07-10T04:28:12;7.17;;;1.80;;
12135;SDS011;6131;56.420;15.548;2022-07-10T04:30:38;8.13;;;2.10;;
12135;SDS011;6131;56.420;15.548;2022-07-10T04:33:04;8.17;;;2.13;;
12135;SDS011;6131;56.420;15.548;2022-07-10T04:35:30;11.37;;;2.37;;
12135;SDS011;6131;56.420;15.548;2022-07-10T04:37:56;7.03;;;2.10;;
12135;SDS011;6131;56.420;15.548;2022-07-10T04:40:22;3.97;;;1.70;;
12135;SDS011;6131;56.420;15.548;2022-07-10T04:42:48;7.37;;;1.67;;
12135;SDS011;6131;56.420;15.548;2022-07-10T04:45:14;4.17;;;1.50;;
12135;SDS011;6131;56.420;15.548;2022-07-10T04:47:40;5.13;;;1.77;;
12135;SDS011;6131;56.420;15.548;2022-07-10T04:50:06;9.00;;;2.03;;
12135;SDS011;6131;56.420;15.548;2022-07-10T04:52:33;8.83;;;1.60;;
12135;SDS011;6131;56.420;15.548;2022-07-10T04:54:59;7.70;;;2.10;;
12135;SDS011;6131;56.420;15.548;2022-07-10T04:57:25;4.83;;;1.70;;
12135;SDS011;6131;56.420;15.548;2022-07-10T04:59:51;9.90;;;2.17;;
12135;SDS011;6131;56.420;15.548;2022-07-10T05:02:18;8.10;;;2.07;;
12135;SDS011;6131;56.420;15.548;2022-07-10T05:04:44;6.77;;;1.70;;
12135;SDS011;6131;56.420;15.548;2022-07-10T05:07:10;5.60;;;1.57;;
12135;SDS011;6131;56.420;15.548;2022-07-10T05:09:36;8.03;;;1.87;;
12135;SDS011;6131;56.420;15.548;2022-07-10T05:12:02;8.67;;;1.73;;
12135;SDS011;6131;56.420;15.548;2022-07-10T05:14:28;5.70;;;1.70;;
12135;SDS011;6131;56.420;15.548;2022-07-10T05:16:54;6.73;;;2.00;;
12135;SDS011;6131;56.420;15.548;2022-07-10T05:19:20;9.57;;;2.20;;
12135;SDS011;6131;56.420;15.548;2022-07-10T05:21:46;4.03;;;1.40;;
12135;SDS011;6131;56.420;15.548;2022-07-10T05:24:12;7.37;;;1.80;;
12135;SDS011;6131;56.420;15.548;2022-07-10T05:26:38;8.70;;;1.60;;
12135;SDS011;6131;56.420;15.548;2022-07-10T05:29:04;4.00;;;1.60;;
12135;SDS011;6131;56.420;15.548;2022-07-10T05:31:30;7.30;;;1.80;;
12135;SDS011;6131;56.420;15.548;2022-07-10T05:33:56;7.00;;;1.57;;
12135;SDS011;6131;56.420;15.548;2022-07-10T05:36:22;4.87;;;1.60;;
12135;SDS011;6131;56.420;15.548;2022-07-10T05:38:49;5.00;;;1.73;;
12135;SDS011;6131;56.420;15.548;2022-07-10T05:41:15;4.40;;;1.50;;
12135;SDS011;6131;56.420;15.548;2022-07-10T05:43:41;6.23;;;1.53;;
12135;SDS011;6131;56.420;15.548;2022-07-10T05:46:07;5.23;;;1.73;;
12135;SDS011;6131;56.420;15.548;2022-07-10T05:48:33;5.17;;;1.40;;
12135;SDS011;6131;56.420;15.548;2022-07-10T05:50:59;4.53;;;1.53;;
12135;SDS011;6131;56.420;15.548;2022-07-10T05:53:25;4.57;;;1.40;;
12135;SDS011;6131;56.420;15.548;2022-07-10T05:55:51;3.57;;;1.47;;
12135;SDS011;6131;56.420;15.548;2022-07-10T05:58:17;3.40;;;1.40;;
12135;SDS011;6131;56.420;15.548;2022-07-10T06:00:43;3.83;;;1.30;;
12135;SDS011;6131;56.420;15.548;2022-07-10T06:03:10;6.83;;;1.70;;
12135;SDS011;6131;56.420;15.548;2022-07-10T06:05:37;3.47;;;1.37;;
12135;SDS011;6131;56.420;15.548;2022-07-10T06:08:03;3.50;;;1.20;;
12135;SDS011;6131;56.420;15.548;2022-07-10T06:10:29;5.00;;;1.37;;
12135;SDS011;6131;56.420;15.548;2022-07-10T06:12:55;4.97;;;1.30;;
12135;SDS011;6131;56.420;15.548;2022-07-10T06:15:21;2.43;;;1.17;;
12135;SDS011;6131;56.420;15.548;2022-07-10T06:17:47;2.63;;;1.00;;
12135;SDS011;6131;56.420;15.548;2022-07-10T06:20:13;2.80;;;1.00;;
12135;SDS011;6131;56.420;15.548;2022-07-10T06:22:39;4.67;;;1.47;;
12135;SDS011;6131;56.420;15.548;2022-07-10T06:25:06;2.60;;;0.97;;
12135;SDS011;6131;56.420;15.548;2022-07-10T06:27:32;4.47;;;1.03;;
12135;SDS011;6131;56.420;15.548;2022-07-10T06:29:59;4.90;;;1.23;;
12135;SDS011;6131;56.420;15.548;2022-07-10T06:32:25;2.77;;;1.20;;
12135;SDS011;6131;56.420;15.548;2022-07-10T06:34:52;3.87;;;1.17;;
12135;SDS011;6131;56.420;15.548;2022-07-10T06:37:18;2.77;;;1.10;;
12135;SDS011;6131;56.420;15.548;2022-07-10T06:39:45;3.13;;;1.13;;
12135;SDS011;6131;56.420;15.548;2022-07-10T06:42:14;4.43;;;1.20;;
12135;SDS011;6131;56.420;15.548;2022-07-10T06:44:41;2.43;;;1.00;;
12135;SDS011;6131;56.420;15.548;2022-07-10T06:47:08;2.70;;;0.80;;
12135;SDS011;6131;56.420;15.548;2022-07-10T06:49:53;3.27;;;1.03;;
12135;SDS011;6131;56.420;15.548;2022-07-10T06:52:20;2.57;;;0.90;;
12135;SDS011;6131;56.420;15.548;2022-07-10T06:54:46;3.23;;;0.90;;
12135;SDS011;6131;56.420;15.548;2022-07-10T06:57:12;2.43;;;0.90;;
12135;SDS011;6131;56.420;15.548;2022-07-10T06:59:38;2.97;;;1.03;;
12135;SDS011;6131;56.420;15.548;2022-07-10T07:02:04;2.90;;;0.93;;
12135;SDS011;6131;56.420;15.548;2022-07-10T07:04:30;2.30;;;0.90;;
12135;SDS011;6131;56.420;15.548;2022-07-10T07:06:56;1.97;;;1.00;;
12135;SDS011;6131;56.420;15.548;2022-07-10T07:09:22;3.30;;;0.83;;
12135;SDS011;6131;56.420;15.548;2022-07-10T07:11:48;2.53;;;0.70;;
12135;SDS011;6131;56.420;15.548;2022-07-10T07:14:14;2.07;;;1.07;;
12135;SDS011;6131;56.420;15.548;2022-07-10T07:16:40;2.03;;;0.77;;
12135;SDS011;6131;56.420;15.548;2022-07-10T07:19:10;2.50;;;0.70;;
12135;SDS011;6131;56.420;15.548;2022-07-10T07:21:40;1.33;;;0.60;;
12135;SDS011;6131;56.420;15.548;2022-07-10T07:24:25;3.23;;;0.70;;
12135;SDS011;6131;56.420;15.548;2022-07-10T07:26:51;1.97;;;0.67;;
12135;SDS011;6131;56.420;15.548;2022-07-10T07:29:17;2.10;;;0.73;;
12135;SDS011;6131;56.420;15.548;2022-07-10T07:31:44;0.93;;;0.60;;
12135;SDS011;6131;56.420;15.548;2022-07-10T07:34:10;3.43;;;0.60;;
12135;SDS011;6131;56.420;15.548;2022-07-10T07:36:36;1.93;;;0.60;;
12135;SDS011;6131;56.420;15.548;2022-07-10T07:39:03;1.77;;;0.40;;
12135;SDS011;6131;56.420;15.548;2022-07-10T07:41:29;0.97;;;0.33;;
12135;SDS011;6131;56.420;15.548;2022-07-10T07:43:55;0.97;;;0.43;;
12135;SDS011;6131;56.420;15.548;2022-07-10T07:46:21;1.23;;;0.60;;
12135;SDS011;6131;56.420;15.548;2022-07-10T07:48:49;2.50;;;0.60;;
12135;SDS011;6131;56.420;15.548;2022-07-10T07:51:15;1.27;;;0.50;;
12135;SDS011;6131;56.420;15.548;2022-07-10T07:53:41;1.90;;;0.70;;
12135;SDS011;6131;56.420;15.548;2022-07-10T07:56:07;0.60;;;0.33;;
12135;SDS011;6131;56.420;15.548;2022-07-10T07:58:33;2.00;;;0.50;;
12135;SDS011;6131;56.420;15.548;2022-07-10T08:00:59;2.43;;;0.40;;
12135;SDS011;6131;56.420;15.548;2022-07-10T08:03:25;2.50;;;0.50;;
12135;SDS011;6131;56.420;15.548;2022-07-10T08:05:51;0.83;;;0.50;;
12135;SDS011;6131;56.420;15.548;2022-07-10T08:08:17;2.03;;;0.60;;
12135;SDS011;6131;56.420;15.548;2022-07-10T08:10:43;1.23;;;0.47;;
12135;SDS011;6131;56.420;15.548;2022-07-10T08:13:09;1.37;;;0.50;;
12135;SDS011;6131;56.420;15.548;2022-07-10T08:15:35;1.00;;;0.40;;
12135;SDS011;6131;56.420;15.548;2022-07-10T08:18:01;1.03;;;0.40;;
12135;SDS011;6131;56.420;15.548;2022-07-10T08:20:29;2.03;;;0.53;;
12135;SDS011;6131;56.420;15.548;2022-07-10T08:22:55;2.50;;;0.40;;
12135;SDS011;6131;56.420;15.548;2022-07-10T08:25:21;0.73;;;0.40;;
12135;SDS011;6131;56.420;15.548;2022-07-10T08:27:59;0.52;;;0.38;;
12135;SDS011;6131;56.420;15.548;2022-07-10T08:30:25;0.50;;;0.30;;
12135;SDS011;6131;56.420;15.548;2022-07-10T08:32:51;0.55;;;0.43;;
12135;SDS011;6131;56.420;15.548;2022-07-10T08:35:17;1.10;;;0.40;;
12135;SDS011;6131;56.420;15.548;2022-07-10T08:37:43;1.35;;;0.35;;
12135;SDS011;6131;56.420;15.548;2022-07-10T08:40:10;0.60;;;0.38;;
12135;SDS011;6131;56.420;15.548;2022-07-10T08:42:37;2.78;;;0.40;;
12135;SDS011;6131;56.420;15.548;2022-07-10T08:45:03;0.50;;;0.40;;
12135;SDS011;6131;56.420;15.548;2022-07-10T08:47:30;0.50;;;0.38;;
12135;SDS011;6131;56.420;15.548;2022-07-10T08:49:56;1.08;;;0.35;;
12135;SDS011;6131;56.420;15.548;2022-07-10T08:52:26;0.65;;;0.30;;
12135;SDS011;6131;56.420;15.548;2022-07-10T08:54:53;1.35;;;0.40;;
12135;SDS011;6131;56.420;15.548;2022-07-10T08:57:20;0.68;;;0.25;;
12135;SDS011;6131;56.420;15.548;2022-07-10T08:59:48;1.70;;;0.30;;
12135;SDS011;6131;56.420;15.548;2022-07-10T09:02:14;1.05;;;0.40;;
12135;SDS011;6131;56.420;15.548;2022-07-10T09:04:41;0.60;;;0.30;;
12135;SDS011;6131;56.420;15.548;2022-07-10T09:07:07;0.68;;;0.43;;
12135;SDS011;6131;56.420;15.548;2022-07-10T09:09:50;1.13;;;0.40;;
12135;SDS011;6131;56.420;15.548;2022-07-10T09:12:16;0.40;;;0.20;;
12135;SDS011;6131;56.420;15.548;2022-07-10T09:14:42;0.50;;;0.20;;
12135;SDS011;6131;56.420;15.548;2022-07-10T09:17:08;0.43;;;0.20;;
12135;SDS011;6131;56.420;15.548;2022-07-10T09:19:34;1.75;;;0.20;;
12135;SDS011;6131;56.420;15.548;2022-07-10T09:24:40;0.80;;;0.20;;
12135;SDS011;6131;56.420;15.548;2022-07-10T09:27:07;1.25;;;0.20;;
12135;SDS011;6131;56.420;15.548;2022-07-10T09:30:07;1.30;;;0.17;;
12135;SDS011;6131;56.420;15.548;2022-07-10T09:32:26;0.40;;;0.13;;
12135;SDS011;6131;56.420;15.548;2022-07-10T09:34:52;0.47;;;0.08;;
12135;SDS011;6131;56.420;15.548;2022-07-10T09:37:39;0.52;;;0.28;;
12135;SDS011;6131;56.420;15.548;2022-07-10T09:40:06;1.88;;;0.20;;
12135;SDS011;6131;56.420;15.548;2022-07-10T09:45:19;1.20;;;0.20;;
12135;SDS011;6131;56.420;15.548;2022-07-10T09:47:45;0.40;;;0.00;;
12135;SDS011;6131;56.420;15.548;2022-07-10T09:50:25;0.65;;;0.25;;
12135;SDS011;6131;56.420;15.548;2022-07-10T09:52:52;1.35;;;0.10;;
12135;SDS011;6131;56.420;15.548;2022-07-10T09:55:19;1.95;;;0.32;;
12135;SDS011;6131;56.420;15.548;2022-07-10T09:57:46;0.50;;;0.10;;
12135;SDS011;6131;56.420;15.548;2022-07-10T10:00:13;1.80;;;0.25;;
12135;SDS011;6131;56.420;15.548;2022-07-10T10:02:39;0.40;;;0.17;;
12135;SDS011;6131;56.420;15.548;2022-07-10T10:05:05;0.40;;;0.10;;
12135;SDS011;6131;56.420;15.548;2022-07-10T10:07:31;0.60;;;0.20;;
12135;SDS011;6131;56.420;15.548;2022-07-10T10:09:57;2.08;;;0.20;;
12135;SDS011;6131;56.420;15.548;2022-07-10T10:12:28;0.47;;;0.10;;
12135;SDS011;6131;56.420;15.548;2022-07-10T10:14:59;0.70;;;0.15;;
12135;SDS011;6131;56.420;15.548;2022-07-10T10:17:26;0.68;;;0.10;;
12135;SDS011;6131;56.420;15.548;2022-07-10T10:19:52;0.52;;;0.28;;
12135;SDS011;6131;56.420;15.548;2022-07-10T10:22:40;0.40;;;0.10;;
12135;SDS011;6131;56.420;15.548;2022-07-10T10:25:06;0.40;;;0.10;;
12135;SDS011;6131;56.420;15.548;2022-07-10T10:27:32;2.88;;;0.20;;
12135;SDS011;6131;56.420;15.548;2022-07-10T10:29:59;0.50;;;0.10;;
12135;SDS011;6131;56.420;15.548;2022-07-10T10:32:26;0.40;;;0.20;;
12135;SDS011;6131;56.420;15.548;2022-07-10T10:34:53;0.85;;;0.13;;
12135;SDS011;6131;56.420;15.548;2022-07-10T10:39:55;0.50;;;0.30;;
12135;SDS011;6131;56.420;15.548;2022-07-10T10:42:38;0.40;;;0.10;;
12135;SDS011;6131;56.420;15.548;2022-07-10T10:45:23;0.85;;;0.10;;
12135;SDS011;6131;56.420;15.548;2022-07-10T10:47:59;0.85;;;0.22;;
12135;SDS011;6131;56.420;15.548;2022-07-10T10:50:35;0.63;;;0.13;;
12135;SDS011;6131;56.420;15.548;2022-07-10T10:53:02;0.52;;;0.22;;
12135;SDS011;6131;56.420;15.548;2022-07-10T10:55:28;0.40;;;0.10;;
12135;SDS011;6131;56.420;15.548;2022-07-10T10:57:54;0.57;;;0.13;;
12135;SDS011;6131;56.420;15.548;2022-07-10T11:00:37;1.27;;;0.25;;
12135;SDS011;6131;56.420;15.548;2022-07-10T11:03:11;0.40;;;0.10;;
12135;SDS011;6131;56.420;15.548;2022-07-10T11:08:06;0.65;;;0.17;;
12135;SDS011;6131;56.420;15.548;2022-07-10T11:10:36;0.52;;;0.10;;
12135;SDS011;6131;56.420;15.548;2022-07-10T11:13:12;0.82;;;0.15;;
12135;SDS011;6131;56.420;15.548;2022-07-10T11:15:39;0.40;;;0.10;;
12135;SDS011;6131;56.420;15.548;2022-07-10T11:18:10;1.85;;;0.38;;
12135;SDS011;6131;56.420;15.548;2022-07-10T11:20:38;0.70;;;0.20;;
12135;SDS011;6131;56.420;15.548;2022-07-10T11:25:45;0.73;;;0.30;;
12135;SDS011;6131;56.420;15.548;2022-07-10T11:28:25;0.40;;;0.10;;
12135;SDS011;6131;56.420;15.548;2022-07-10T11:30:54;0.98;;;0.20;;
12135;SDS011;6131;56.420;15.548;2022-07-10T11:33:21;1.48;;;0.22;;
12135;SDS011;6131;56.420;15.548;2022-07-10T11:35:48;0.40;;;0.10;;
12135;SDS011;6131;56.420;15.548;2022-07-10T11:38:21;0.60;;;0.20;;
12135;SDS011;6131;56.420;15.548;2022-07-10T11:40:47;0.50;;;0.30;;
12135;SDS011;6131;56.420;15.548;2022-07-10T11:43:14;0.45;;;0.20;;
12135;SDS011;6131;56.420;15.548;2022-07-10T11:45:42;0.47;;;0.13;;
12135;SDS011;6131;56.420;15.548;2022-07-10T11:48:16;1.55;;;0.20;;
12135;SDS011;6131;56.420;15.548;2022-07-10T11:50:42;0.88;;;0.25;;
12135;SDS011;6131;56.420;15.548;2022-07-10T11:53:09;0.40;;;0.17;;
12135;SDS011;6131;56.420;15.548;2022-07-10T11:55:35;1.50;;;0.20;;
12135;SDS011;6131;56.420;15.548;2022-07-10T11:58:15;0.70;;;0.30;;
12135;SDS011;6131;56.420;15.548;2022-07-10T12:00:41;0.40;;;0.20;;
12135;SDS011;6131;56.420;15.548;2022-07-10T12:03:18;0.43;;;0.20;;
12135;SDS011;6131;56.420;15.548;2022-07-10T12:05:45;0.85;;;0.30;;
12135;SDS011;6131;56.420;15.548;2022-07-10T12:08:11;1.10;;;0.22;;
12135;SDS011;6131;56.420;15.548;2022-07-10T12:10:40;0.40;;;0.20;;
12135;SDS011;6131;56.420;15.548;2022-07-10T12:13:11;0.77;;;0.30;;
12135;SDS011;6131;56.420;15.548;2022-07-10T12:15:39;1.33;;;0.40;;
12135;SDS011;6131;56.420;15.548;2022-07-10T12:18:05;0.50;;;0.20;;
12135;SDS011;6131;56.420;15.548;2022-07-10T12:20:31;0.50;;;0.25;;
12135;SDS011;6131;56.420;15.548;2022-07-10T12:22:58;1.45;;;0.20;;
12135;SDS011;6131;56.420;15.548;2022-07-10T12:25:25;0.40;;;0.13;;
12135;SDS011;6131;56.420;15.548;2022-07-10T12:27:54;0.40;;;0.20;;
12135;SDS011;6131;56.420;15.548;2022-07-10T12:30:22;0.98;;;0.38;;
12135;SDS011;6131;56.420;15.548;2022-07-10T12:32:48;0.40;;;0.10;;
12135;SDS011;6131;56.420;15.548;2022-07-10T12:35:14;0.40;;;0.20;;
12135;SDS011;6131;56.420;15.548;2022-07-10T12:37:49;0.95;;;0.30;;
12135;SDS011;6131;56.420;15.548;2022-07-10T12:40:32;1.15;;;0.22;;
12135;SDS011;6131;56.420;15.548;2022-07-10T12:43:02;0.40;;;0.30;;
12135;SDS011;6131;56.420;15.548;2022-07-10T12:45:28;0.73;;;0.30;;
12135;SDS011;6131;56.420;15.548;2022-07-10T12:47:54;0.43;;;0.22;;
12135;SDS011;6131;56.420;15.548;2022-07-10T12:50:20;0.40;;;0.20;;
12135;SDS011;6131;56.420;15.548;2022-07-10T12:52:47;0.50;;;0.22;;
12135;SDS011;6131;56.420;15.548;2022-07-10T12:55:14;0.60;;;0.10;;
12135;SDS011;6131;56.420;15.548;2022-07-10T12:57:47;0.50;;;0.30;;
12135;SDS011;6131;56.420;15.548;2022-07-10T13:00:14;0.40;;;0.20;;
12135;SDS011;6131;56.420;15.548;2022-07-10T13:02:41;0.40;;;0.20;;
12135;SDS011;6131;56.420;15.548;2022-07-10T13:05:07;0.40;;;0.30;;
12135;SDS011;6131;56.420;15.548;2022-07-10T13:07:34;0.40;;;0.30;;
12135;SDS011;6131;56.420;15.548;2022-07-10T13:10:04;0.40;;;0.20;;
12135;SDS011;6131;56.420;15.548;2022-07-10T13:12:31;0.60;;;0.22;;
12135;SDS011;6131;56.420;15.548;2022-07-10T13:14:57;1.10;;;0.60;;
12135;SDS011;6131;56.420;15.548;2022-07-10T13:17:23;0.40;;;0.20;;
12135;SDS011;6131;56.420;15.548;2022-07-10T13:19:50;0.50;;;0.28;;
12135;SDS011;6131;56.420;15.548;2022-07-10T13:22:16;1.48;;;0.22;;
12135;SDS011;6131;56.420;15.548;2022-07-10T13:24:42;0.40;;;0.20;;
12135;SDS011;6131;56.420;15.548;2022-07-10T13:27:08;0.68;;;0.28;;
12135;SDS011;6131;56.420;15.548;2022-07-10T13:29:34;0.40;;;0.20;;
12135;SDS011;6131;56.420;15.548;2022-07-10T13:32:00;0.93;;;0.30;;
12135;SDS011;6131;56.420;15.548;2022-07-10T13:34:27;0.43;;;0.22;;
12135;SDS011;6131;56.420;15.548;2022-07-10T13:36:53;0.50;;;0.30;;
12135;SDS011;6131;56.420;15.548;2022-07-10T13:39:20;0.95;;;0.30;;
12135;SDS011;6131;56.420;15.548;2022-07-10T13:41:46;0.63;;;0.25;;
12135;SDS011;6131;56.420;15.548;2022-07-10T13:44:12;0.40;;;0.30;;
12135;SDS011;6131;56.420;15.548;2022-07-10T13:46:38;0.40;;;0.20;;
12135;SDS011;6131;56.420;15.548;2022-07-10T13:49:05;0.80;;;0.25;;
12135;SDS011;6131;56.420;15.548;2022-07-10T13:51:31;1.23;;;0.30;;
12135;SDS011;6131;56.420;15.548;2022-07-10T13:53:57;0.40;;;0.15;;
12135;SDS011;6131;56.420;15.548;2022-07-10T13:56:23;0.93;;;0.32;;
12135;SDS011;6131;56.420;15.548;2022-07-10T13:58:50;0.40;;;0.20;;
12135;SDS011;6131;56.420;15.548;2022-07-10T14:01:17;0.40;;;0.17;;
12135;SDS011;6131;56.420;15.548;2022-07-10T14:03:43;0.40;;;0.20;;
12135;SDS011;6131;56.420;15.548;2022-07-10T14:06:09;0.65;;;0.35;;
12135;SDS011;6131;56.420;15.548;2022-07-10T14:08:35;0.40;;;0.30;;
12135;SDS011;6131;56.420;15.548;2022-07-10T14:11:01;0.40;;;0.30;;
12135;SDS011;6131;56.420;15.548;2022-07-10T14:13:27;0.52;;;0.20;;
12135;SDS011;6131;56.420;15.548;2022-07-10T14:15:53;0.93;;;0.30;;
12135;SDS011;6131;56.420;15.548;2022-07-10T14:18:20;0.50;;;0.40;;
12135;SDS011;6131;56.420;15.548;2022-07-10T14:21:05;0.50;;;0.45;;
12135;SDS011;6131;56.420;15.548;2022-07-10T14:23:38;1.50;;;0.40;;
12135;SDS011;6131;56.420;15.548;2022-07-10T14:26:06;0.47;;;0.30;;
12135;SDS011;6131;56.420;15.548;2022-07-10T14:28:32;0.55;;;0.40;;
12135;SDS011;6131;56.420;15.548;2022-07-10T14:31:02;0.50;;;0.30;;
12135;SDS011;6131;56.420;15.548;2022-07-10T14:33:29;1.58;;;0.30;;
12135;SDS011;6131;56.420;15.548;2022-07-10T14:35:55;1.30;;;0.30;;
12135;SDS011;6131;56.420;15.548;2022-07-10T14:38:21;0.93;;;0.30;;
12135;SDS011;6131;56.420;15.548;2022-07-10T14:40:47;1.70;;;0.20;;
12135;SDS011;6131;56.420;15.548;2022-07-10T14:43:15;0.80;;;0.40;;
12135;SDS011;6131;56.420;15.548;2022-07-10T14:45:41;0.57;;;0.30;;
12135;SDS011;6131;56.420;15.548;2022-07-10T14:48:07;1.30;;;0.28;;
12135;SDS011;6131;56.420;15.548;2022-07-10T14:50:33;1.17;;;0.30;;
12135;SDS011;6131;56.420;15.548;2022-07-10T14:52:59;0.70;;;0.30;;
12135;SDS011;6131;56.420;15.548;2022-07-10T14:55:25;0.70;;;0.40;;
12135;SDS011;6131;56.420;15.548;2022-07-10T14:57:51;0.47;;;0.30;;
12135;SDS011;6131;56.420;15.548;2022-07-10T15:00:17;1.38;;;0.30;;
12135;SDS011;6131;56.420;15.548;2022-07-10T15:02:43;1.40;;;0.28;;